createdAt,value
2017-06-24T00:00:54.444Z,0
2017-06-24T00:01:54.481Z,0
2017-06-24T00:02:54.461Z,0
2017-06-24T00:03:54.396Z,0
2017-06-24T00:04:54.363Z,0
2017-06-24T00:05:54.349Z,0
2017-06-24T00:06:54.035Z,0
2017-06-24T00:07:54.315Z,0
2017-06-24T00:08:54.297Z,0
2017-06-24T00:09:54.327Z,0
2017-06-24T00:10:54.258Z,0
2017-06-24T00:11:54.241Z,0
2017-06-24T00:12:53.918Z,0
2017-06-24T00:13:54.202Z,0
2017-06-24T00:14:54.178Z,0
2017-06-24T00:15:54.171Z,0
2017-06-24T00:16:54.145Z,0
2017-06-24T00:17:54.126Z,0
2017-06-24T00:18:53.504Z,0
2017-06-24T00:19:53.785Z,0
2017-06-24T00:20:54.066Z,0
2017-06-24T00:21:54.088Z,0
2017-06-24T00:22:53.444Z,0
2017-06-24T00:23:54.022Z,0
2017-06-24T00:24:54.005Z,0
2017-06-24T00:25:53.982Z,0
2017-06-24T00:26:53.654Z,0
2017-06-24T00:27:53.953Z,0
2017-06-24T00:28:53.920Z,0
2017-06-24T00:29:53.943Z,0
2017-06-24T00:30:53.884Z,0
2017-06-24T00:31:54.114Z,0
2017-06-24T00:32:53.893Z,0
2017-06-24T00:33:53.829Z,0
2017-06-24T00:34:53.816Z,0
2017-06-24T00:35:53.838Z,0
2017-06-24T00:36:53.822Z,0
2017-06-24T00:37:53.755Z,0
2017-06-24T00:38:53.732Z,0
2017-06-24T00:39:53.413Z,0
2017-06-24T00:40:53.701Z,0
2017-06-24T00:41:53.775Z,0
2017-06-24T00:42:53.652Z,0
2017-06-24T00:43:53.666Z,0
2017-06-24T00:44:53.629Z,0
2017-06-24T00:45:53.600Z,0
2017-06-24T00:46:53.582Z,0
2017-06-24T00:47:53.565Z,0
2017-06-24T00:48:53.546Z,0
2017-06-24T00:49:53.276Z,0
2017-06-24T00:50:53.510Z,0
2017-06-24T00:51:53.488Z,0
2017-06-24T00:52:53.473Z,0
2017-06-24T00:53:53.453Z,0
2017-06-24T00:54:53.439Z,0
2017-06-24T00:55:53.415Z,0
2017-06-24T00:56:53.394Z,0
2017-06-24T00:57:53.383Z,0
2017-06-24T00:58:53.359Z,0
2017-06-24T00:59:53.393Z,0
2017-06-24T01:00:53.322Z,0
2017-06-24T01:01:53.298Z,0
2017-06-24T01:02:53.293Z,0
2017-06-24T01:03:53.263Z,0
2017-06-24T01:04:52.928Z,0
2017-06-24T01:05:53.469Z,0
2017-06-24T01:06:53.209Z,0
2017-06-24T01:07:53.182Z,0
2017-06-24T01:08:53.161Z,0
2017-06-24T01:09:53.152Z,0
2017-06-24T01:10:53.135Z,0
2017-06-24T01:11:53.110Z,0
2017-06-24T01:12:53.089Z,0
2017-06-24T01:13:53.073Z,0
2017-06-24T01:14:53.049Z,0
2017-06-24T01:15:52.733Z,0
2017-06-24T01:16:52.720Z,0
2017-06-24T01:17:53.040Z,0
2017-06-24T01:18:52.971Z,0
2017-06-24T01:19:52.958Z,0
2017-06-24T01:20:52.636Z,0
2017-06-24T01:21:52.913Z,0
2017-06-24T01:22:52.900Z,0
2017-06-24T01:23:52.877Z,0
2017-06-24T01:24:52.856Z,0
2017-06-24T01:25:52.889Z,0
2017-06-24T01:26:52.842Z,0
2017-06-24T01:27:52.802Z,0
2017-06-24T01:28:52.783Z,0
2017-06-24T01:29:52.763Z,0
2017-06-24T01:30:52.436Z,0
2017-06-24T01:31:52.770Z,0
2017-06-24T01:32:52.705Z,0
2017-06-24T01:33:52.692Z,0
2017-06-24T01:35:07.301Z,0
2017-06-24T01:35:52.639Z,0
2017-06-24T01:36:52.625Z,0
2017-06-24T01:37:52.618Z,0
2017-06-24T01:38:52.599Z,0
2017-06-24T01:39:52.565Z,0
2017-06-24T01:40:52.564Z,0
2017-06-24T01:41:52.539Z,0
2017-06-24T01:42:52.526Z,0
2017-06-24T01:43:52.495Z,0
2017-06-24T01:44:52.475Z,0
2017-06-24T01:45:52.456Z,0
2017-06-24T01:46:52.435Z,0
2017-06-24T01:47:52.464Z,0
2017-06-24T01:48:52.403Z,0
2017-06-24T01:49:52.389Z,0
2017-06-24T01:50:52.364Z,0
2017-06-24T01:51:52.346Z,0
2017-06-24T01:52:52.325Z,0
2017-06-24T01:53:52.307Z,0
2017-06-24T01:54:52.283Z,0
2017-06-24T01:55:52.258Z,0
2017-06-24T01:56:52.241Z,0
2017-06-24T01:57:52.232Z,0
2017-06-24T01:58:51.908Z,0
2017-06-24T01:59:52.444Z,0
2017-06-24T02:00:51.855Z,0
2017-06-24T02:01:52.155Z,0
2017-06-24T02:02:52.127Z,0
2017-06-24T02:03:52.103Z,0
2017-06-24T02:04:52.097Z,0
2017-06-24T02:05:52.084Z,0
2017-06-24T02:06:52.249Z,0
2017-06-24T02:07:52.030Z,0
2017-06-24T02:08:52.015Z,0
2017-06-24T02:09:52.001Z,0
2017-06-24T02:10:51.683Z,0
2017-06-24T02:11:51.956Z,0
2017-06-24T02:12:51.627Z,0
2017-06-24T02:13:51.906Z,0
2017-06-24T02:14:51.891Z,0
2017-06-24T02:15:51.919Z,0
2017-06-24T02:16:51.852Z,0
2017-06-24T02:17:51.833Z,0
2017-06-24T02:18:51.524Z,0
2017-06-24T02:19:51.875Z,0
2017-06-24T02:20:51.488Z,0
2017-06-24T02:21:51.788Z,0
2017-06-24T02:22:51.808Z,0
2017-06-24T02:23:51.731Z,0
2017-06-24T02:24:51.714Z,0
2017-06-24T02:25:51.692Z,0
2017-06-24T02:26:51.672Z,0
2017-06-24T02:27:51.641Z,0
2017-06-24T02:28:51.632Z,0
2017-06-24T02:29:51.703Z,0
2017-06-24T02:30:51.582Z,0
2017-06-24T02:31:51.282Z,0
2017-06-24T02:32:51.547Z,0
2017-06-24T02:33:51.541Z,0
2017-06-24T02:34:51.563Z,0
2017-06-24T02:35:51.498Z,0
2017-06-24T02:36:51.500Z,0
2017-06-24T02:37:51.466Z,0
2017-06-24T02:38:51.425Z,0
2017-06-24T02:39:51.111Z,0
2017-06-24T02:40:51.403Z,0
2017-06-24T02:41:51.371Z,0
2017-06-24T02:42:51.011Z,0
2017-06-24T02:43:51.332Z,0
2017-06-24T02:44:51.620Z,0
2017-06-24T02:45:51.304Z,0
2017-06-24T02:46:51.268Z,0
2017-06-24T02:47:50.957Z,0
2017-06-24T02:48:51.241Z,0
2017-06-24T02:49:50.961Z,0
2017-06-24T02:50:50.896Z,0
2017-06-24T02:51:51.175Z,0
2017-06-24T02:52:50.862Z,0
2017-06-24T02:53:51.147Z,0
2017-06-24T02:54:51.121Z,0
2017-06-24T02:55:50.857Z,0
2017-06-24T02:56:51.132Z,0
2017-06-24T02:57:51.063Z,0
2017-06-24T02:58:51.047Z,0
2017-06-24T02:59:51.031Z,0
2017-06-24T03:00:51.008Z,0
2017-06-24T03:01:50.688Z,0
2017-06-24T03:02:50.965Z,0
2017-06-24T03:03:50.995Z,0
2017-06-24T03:04:50.923Z,0
2017-06-24T03:05:50.848Z,0
2017-06-24T03:06:50.880Z,0
2017-06-24T03:07:50.862Z,0
2017-06-24T03:08:50.852Z,0
2017-06-24T03:09:50.826Z,0
2017-06-24T03:10:50.502Z,0
2017-06-24T03:11:50.788Z,5
2017-06-24T03:12:50.807Z,5
2017-06-24T03:13:51.052Z,5
2017-06-24T03:14:50.472Z,5
2017-06-24T03:15:50.743Z,5
2017-06-24T03:16:50.692Z,5
2017-06-24T03:17:50.662Z,5
2017-06-24T03:18:50.672Z,5
2017-06-24T03:19:50.631Z,5
2017-06-24T03:20:50.607Z,5
2017-06-24T03:21:50.590Z,5
2017-06-24T03:22:50.572Z,5
2017-06-24T03:23:50.549Z,5
2017-06-24T03:24:50.550Z,10
2017-06-24T03:25:50.511Z,10
2017-06-24T03:26:50.489Z,10
2017-06-24T03:27:50.518Z,10
2017-06-24T03:28:50.449Z,10
2017-06-24T03:29:50.396Z,10
2017-06-24T03:30:50.417Z,10
2017-06-24T03:31:50.402Z,10
2017-06-24T03:32:50.373Z,10
2017-06-24T03:33:50.357Z,10
2017-06-24T03:34:50.588Z,15
2017-06-24T03:35:50.313Z,15
2017-06-24T03:36:50.309Z,15
2017-06-24T03:37:49.978Z,15
2017-06-24T03:38:50.261Z,15
2017-06-24T03:39:50.237Z,15
2017-06-24T03:40:50.124Z,15
2017-06-24T03:41:50.239Z,15
2017-06-24T03:42:50.168Z,20
2017-06-24T03:43:50.162Z,20
2017-06-24T03:44:49.837Z,20
2017-06-24T03:45:50.126Z,20
2017-06-24T03:46:50.133Z,20
2017-06-24T03:47:50.080Z,20
2017-06-24T03:48:50.052Z,25
2017-06-24T03:49:50.043Z,25
2017-06-24T03:50:50.018Z,25
2017-06-24T03:51:50.001Z,25
2017-06-24T03:52:49.980Z,25
2017-06-24T03:53:50.012Z,25
2017-06-24T03:54:49.935Z,25
2017-06-24T03:55:49.617Z,25
2017-06-24T03:56:49.901Z,25
2017-06-24T03:57:49.884Z,25
2017-06-24T03:58:49.556Z,25
2017-06-24T03:59:49.831Z,30
2017-06-24T04:00:49.823Z,30
2017-06-24T04:01:49.810Z,30
2017-06-24T04:02:49.788Z,30
2017-06-24T04:03:49.764Z,30
2017-06-24T04:04:49.744Z,30
2017-06-24T04:05:49.722Z,30
2017-06-24T04:06:49.703Z,35
2017-06-24T04:07:49.686Z,35
2017-06-24T04:08:49.694Z,35
2017-06-24T04:09:49.677Z,35
2017-06-24T04:10:49.625Z,35
2017-06-24T04:11:49.655Z,40
2017-06-24T04:12:49.289Z,40
2017-06-24T04:13:49.570Z,40
2017-06-24T04:14:49.859Z,40
2017-06-24T04:15:49.217Z,45
2017-06-24T04:16:49.506Z,45
2017-06-24T04:17:49.489Z,45
2017-06-24T04:18:49.171Z,45
2017-06-24T04:19:49.444Z,50
2017-06-24T04:20:49.436Z,60
2017-06-24T04:21:49.434Z,65
2017-06-24T04:22:49.393Z,65
2017-06-24T04:23:49.383Z,60
2017-06-24T04:24:49.059Z,65
2017-06-24T04:25:49.345Z,70
2017-06-24T04:26:49.366Z,70
2017-06-24T04:27:49.295Z,75
2017-06-24T04:28:49.280Z,65
2017-06-24T04:29:49.291Z,70
2017-06-24T04:30:49.246Z,70
2017-06-24T04:31:49.212Z,65
2017-06-24T04:32:49.189Z,70
2017-06-24T04:33:49.164Z,80
2017-06-24T04:34:49.216Z,85
2017-06-24T04:35:49.124Z,85
2017-06-24T04:36:49.106Z,85
2017-06-24T04:37:49.087Z,80
2017-06-24T04:38:49.080Z,75
2017-06-24T04:39:49.054Z,70
2017-06-24T04:40:49.025Z,70
2017-06-24T04:41:49.014Z,70
2017-06-24T04:42:48.990Z,75
2017-06-24T04:43:48.714Z,70
2017-06-24T04:44:48.954Z,75
2017-06-24T04:45:48.935Z,80
2017-06-24T04:46:48.906Z,90
2017-06-24T04:47:48.889Z,100
2017-06-24T04:48:49.124Z,100
2017-06-24T04:49:48.861Z,100
2017-06-24T04:50:49.126Z,105
2017-06-24T04:51:48.820Z,125
2017-06-24T04:52:48.487Z,110
2017-06-24T04:53:48.778Z,120
2017-06-24T04:54:48.752Z,140
2017-06-24T04:55:48.729Z,150
2017-06-24T04:56:48.455Z,165
2017-06-24T04:57:48.391Z,155
2017-06-24T04:58:48.671Z,115
2017-06-24T04:59:48.661Z,100
2017-06-24T05:00:48.729Z,95
2017-06-24T05:01:48.610Z,115
2017-06-24T05:02:48.590Z,90
2017-06-24T05:03:48.579Z,85
2017-06-24T05:04:48.546Z,90
2017-06-24T05:05:48.589Z,90
2017-06-24T05:06:48.512Z,90
2017-06-24T05:07:48.559Z,90
2017-06-24T05:08:48.475Z,90
2017-06-24T05:09:48.451Z,85
2017-06-24T05:10:48.437Z,80
2017-06-24T05:11:48.470Z,75
2017-06-24T05:12:48.449Z,70
2017-06-24T05:13:48.381Z,70
2017-06-24T05:14:48.369Z,65
2017-06-24T05:15:48.340Z,65
2017-06-24T05:16:48.322Z,70
2017-06-24T05:17:48.336Z,70
2017-06-24T05:18:48.286Z,75
2017-06-24T05:19:48.312Z,70
2017-06-24T05:20:48.244Z,75
2017-06-24T05:21:48.232Z,90
2017-06-24T05:22:48.460Z,90
2017-06-24T05:23:48.173Z,90
2017-06-24T05:24:47.867Z,95
2017-06-24T05:25:47.891Z,105
2017-06-24T05:26:48.118Z,100
2017-06-24T05:27:48.100Z,95
2017-06-24T05:28:48.089Z,105
2017-06-24T05:29:48.102Z,125
2017-06-24T05:30:48.043Z,135
2017-06-24T05:31:48.028Z,140
2017-06-24T05:32:47.699Z,155
2017-06-24T05:33:47.981Z,155
2017-06-24T05:34:47.956Z,180
2017-06-24T05:35:47.950Z,165
2017-06-24T05:36:47.930Z,180
2017-06-24T05:37:47.909Z,190
2017-06-24T05:38:47.895Z,200
2017-06-24T05:39:47.869Z,185
2017-06-24T05:40:47.852Z,165
2017-06-24T05:41:47.774Z,155
2017-06-24T05:42:47.496Z,150
2017-06-24T05:43:47.833Z,155
2017-06-24T05:44:47.765Z,150
2017-06-24T05:45:47.445Z,135
2017-06-24T05:46:47.417Z,125
2017-06-24T05:47:47.113Z,105
2017-06-24T05:48:47.687Z,120
2017-06-24T05:49:47.671Z,135
2017-06-24T05:50:47.650Z,135
2017-06-24T05:51:47.331Z,125
2017-06-24T05:52:47.628Z,105
2017-06-24T05:53:47.586Z,105
2017-06-24T05:54:47.574Z,115
2017-06-24T05:55:47.602Z,130
2017-06-24T05:56:47.531Z,140
2017-06-24T05:57:47.533Z,165
2017-06-24T05:58:47.247Z,170
2017-06-24T05:59:47.471Z,155
2017-06-24T06:00:47.449Z,155
2017-06-24T06:01:47.439Z,150
2017-06-24T06:02:47.470Z,170
2017-06-24T06:03:47.394Z,155
2017-06-24T06:04:47.379Z,170
2017-06-24T06:05:47.405Z,170
2017-06-24T06:06:47.329Z,155
2017-06-24T06:07:47.015Z,165
2017-06-24T06:08:47.353Z,150
2017-06-24T06:09:47.278Z,150
2017-06-24T06:10:47.314Z,135
2017-06-24T06:11:46.937Z,115
2017-06-24T06:12:47.330Z,115
2017-06-24T06:13:47.246Z,125
2017-06-24T06:14:47.183Z,135
2017-06-24T06:15:47.172Z,150
2017-06-24T06:16:47.137Z,155
2017-06-24T06:17:47.118Z,165
2017-06-24T06:18:47.105Z,165
2017-06-24T06:19:46.779Z,150
2017-06-24T06:20:46.764Z,145
2017-06-24T06:21:46.742Z,140
2017-06-24T06:22:47.082Z,145
2017-06-24T06:23:46.696Z,145
2017-06-24T06:24:46.995Z,150
2017-06-24T06:25:46.668Z,155
2017-06-24T06:26:46.946Z,165
2017-06-24T06:27:46.922Z,175
2017-06-24T06:28:46.903Z,180
2017-06-24T06:29:46.885Z,175
2017-06-24T06:30:46.868Z,180
2017-06-24T06:31:46.859Z,170
2017-06-24T06:32:46.829Z,170
2017-06-24T06:33:46.809Z,175
2017-06-24T06:34:46.793Z,185
2017-06-24T06:35:46.483Z,220
2017-06-24T06:36:46.461Z,240
2017-06-24T06:37:46.741Z,255
2017-06-24T06:38:46.966Z,245
2017-06-24T06:39:46.394Z,255
2017-06-24T06:40:46.673Z,255
2017-06-24T06:41:46.660Z,270
2017-06-24T06:42:46.635Z,250
2017-06-24T06:43:46.317Z,250
2017-06-24T06:44:46.614Z,230
2017-06-24T06:45:46.586Z,225
2017-06-24T06:46:46.571Z,230
2017-06-24T06:47:46.245Z,260
2017-06-24T06:48:46.529Z,275
2017-06-24T06:49:46.570Z,310
2017-06-24T06:50:46.483Z,340
2017-06-24T06:51:46.223Z,405
2017-06-24T06:52:46.448Z,565
2017-06-24T06:53:46.130Z,550
2017-06-24T06:54:46.477Z,550
2017-06-24T06:55:46.395Z,510
2017-06-24T06:56:46.375Z,640
2017-06-24T06:57:46.401Z,950
2017-06-24T06:58:45.760Z,595
2017-06-24T06:59:46.010Z,505
2017-06-24T07:00:46.413Z,520
2017-06-24T07:01:46.284Z,605
2017-06-24T07:02:46.311Z,490
2017-06-24T07:03:45.945Z,490
2017-06-24T07:04:46.220Z,430
2017-06-24T07:05:46.458Z,425
2017-06-24T07:06:46.188Z,380
2017-06-24T07:07:46.174Z,340
2017-06-24T07:08:46.155Z,395
2017-06-24T07:09:46.204Z,420
2017-06-24T07:10:46.117Z,390
2017-06-24T07:11:46.100Z,355
2017-06-24T07:12:46.084Z,350
2017-06-24T07:13:46.065Z,340
2017-06-24T07:14:46.057Z,335
2017-06-24T07:15:46.067Z,380
2017-06-24T07:16:46.008Z,440
2017-06-24T07:17:45.433Z,450
2017-06-24T07:18:45.972Z,385
2017-06-24T07:19:45.955Z,355
2017-06-24T07:20:45.947Z,450
2017-06-24T07:21:45.928Z,550
2017-06-24T07:22:45.605Z,560
2017-06-24T07:23:45.881Z,560
2017-06-24T07:24:45.868Z,410
2017-06-24T07:25:45.558Z,620
2017-06-24T07:26:45.838Z,910
2017-06-24T07:27:45.817Z,545
2017-06-24T07:28:45.535Z,625
2017-06-24T07:29:45.788Z,590
2017-06-24T07:30:45.765Z,525
2017-06-24T07:31:45.792Z,415
2017-06-24T07:32:45.725Z,400
2017-06-24T07:33:45.715Z,545
2017-06-24T07:34:45.702Z,670
2017-06-24T07:35:45.676Z,940
2017-06-24T07:36:45.653Z,360
2017-06-24T07:37:45.655Z,375
2017-06-24T07:38:45.343Z,430
2017-06-24T07:39:45.613Z,545
2017-06-24T07:40:45.314Z,675
2017-06-24T07:41:45.684Z,820
2017-06-24T07:42:45.621Z,980
2017-06-24T07:43:45.599Z,865
2017-06-24T07:44:45.522Z,775
2017-06-24T07:45:45.257Z,710
2017-06-24T07:46:45.498Z,665
2017-06-24T07:47:45.474Z,635
2017-06-24T07:48:45.209Z,635
2017-06-24T07:49:45.496Z,625
2017-06-24T07:50:45.436Z,595
2017-06-24T07:51:45.107Z,535
2017-06-24T07:52:45.396Z,510
2017-06-24T07:53:45.373Z,505
2017-06-24T07:54:45.362Z,745
2017-06-24T07:55:45.351Z,520
2017-06-24T07:56:45.027Z,585
2017-06-24T07:57:45.340Z,575
2017-06-24T07:58:44.998Z,530
2017-06-24T07:59:45.280Z,510
2017-06-24T08:00:45.274Z,530
2017-06-24T08:01:45.259Z,565
2017-06-24T08:02:45.233Z,555
2017-06-24T08:03:45.218Z,560
2017-06-24T08:04:45.203Z,480
2017-06-24T08:05:45.200Z,405
2017-06-24T08:06:45.427Z,350
2017-06-24T08:07:45.200Z,315
2017-06-24T08:08:45.136Z,300
2017-06-24T08:09:44.819Z,360
2017-06-24T08:10:45.120Z,435
2017-06-24T08:11:45.087Z,445
2017-06-24T08:12:45.077Z,460
2017-06-24T08:13:45.099Z,510
2017-06-24T08:14:45.050Z,555
2017-06-24T08:15:44.716Z,555
2017-06-24T08:16:45.001Z,525
2017-06-24T08:17:44.987Z,500
2017-06-24T08:18:44.995Z,485
2017-06-24T08:19:45.061Z,445
2017-06-24T08:20:44.645Z,415
2017-06-24T08:21:44.941Z,380
2017-06-24T08:22:44.909Z,360
2017-06-24T08:23:44.651Z,400
2017-06-24T08:24:44.565Z,420
2017-06-24T08:25:44.862Z,430
2017-06-24T08:26:44.840Z,415
2017-06-24T08:27:44.524Z,400
2017-06-24T08:28:44.846Z,405
2017-06-24T08:29:44.786Z,410
2017-06-24T08:30:44.784Z,390
2017-06-24T08:31:44.764Z,395
2017-06-24T08:32:44.741Z,380
2017-06-24T08:33:44.750Z,375
2017-06-24T08:34:44.713Z,400
2017-06-24T08:35:44.695Z,425
2017-06-24T08:36:44.416Z,500
2017-06-24T08:37:44.664Z,550
2017-06-24T08:38:44.644Z,570
2017-06-24T08:39:44.370Z,585
2017-06-24T08:40:44.006Z,655
2017-06-24T08:41:44.283Z,725
2017-06-24T08:42:44.553Z,700
2017-06-24T08:43:43.957Z,730
2017-06-24T08:44:44.527Z,835
2017-06-24T08:45:44.570Z,750
2017-06-24T08:46:44.256Z,685
2017-06-24T08:47:44.745Z,755
2017-06-24T08:48:44.477Z,795
2017-06-24T08:49:44.454Z,785
2017-06-24T08:50:44.697Z,745
2017-06-24T08:51:44.424Z,825
2017-06-24T08:52:44.403Z,930
2017-06-24T08:53:44.392Z,840
2017-06-24T08:54:44.379Z,925
2017-06-24T08:55:44.351Z,840
2017-06-24T08:56:44.360Z,950
2017-06-24T08:57:44.373Z,865
2017-06-24T08:58:44.323Z,870
2017-06-24T08:59:44.295Z,670
2017-06-24T09:00:44.283Z,605
2017-06-24T09:01:44.272Z,550
2017-06-24T09:02:44.266Z,515
2017-06-24T09:03:44.234Z,520
2017-06-24T09:04:44.223Z,470
2017-06-24T09:05:44.213Z,425
2017-06-24T09:06:44.204Z,430
2017-06-24T09:07:43.639Z,380
2017-06-24T09:08:43.918Z,380
2017-06-24T09:09:43.854Z,390
2017-06-24T09:10:43.827Z,375
2017-06-24T09:11:44.125Z,360
2017-06-24T09:12:43.833Z,350
2017-06-24T09:13:43.484Z,340
2017-06-24T09:14:44.066Z,350
2017-06-24T09:15:44.077Z,315
2017-06-24T09:16:44.084Z,320
2017-06-24T09:17:44.023Z,295
2017-06-24T09:18:44.015Z,265
2017-06-24T09:19:43.996Z,270
2017-06-24T09:20:43.981Z,275
2017-06-24T09:21:43.956Z,245
2017-06-24T09:22:43.937Z,250
2017-06-24T09:23:43.633Z,240
2017-06-24T09:24:43.307Z,245
2017-06-24T09:25:43.895Z,225
2017-06-24T09:26:44.225Z,260
2017-06-24T09:27:43.554Z,255
2017-06-24T09:28:43.843Z,240
2017-06-24T09:29:43.818Z,260
2017-06-24T09:30:43.504Z,255
2017-06-24T09:31:43.794Z,270
2017-06-24T09:32:43.468Z,265
2017-06-24T09:33:43.457Z,250
2017-06-24T09:34:43.476Z,265
2017-06-24T09:35:43.428Z,295
2017-06-24T09:36:43.701Z,300
2017-06-24T09:37:43.678Z,315
2017-06-24T09:38:43.681Z,320
2017-06-24T09:39:43.657Z,325
2017-06-24T09:40:43.626Z,365
2017-06-24T09:41:43.353Z,425
2017-06-24T09:42:43.614Z,485
2017-06-24T09:43:43.629Z,410
2017-06-24T09:44:43.581Z,470
2017-06-24T09:45:43.544Z,420
2017-06-24T09:46:43.523Z,410
2017-06-24T09:47:43.208Z,345
2017-06-24T09:48:43.491Z,345
2017-06-24T09:49:43.729Z,335
2017-06-24T09:50:43.166Z,305
2017-06-24T09:51:43.139Z,340
2017-06-24T09:52:43.427Z,325
2017-06-24T09:53:43.459Z,405
2017-06-24T09:54:43.097Z,385
2017-06-24T09:55:43.382Z,350
2017-06-24T09:56:43.091Z,300
2017-06-24T09:57:43.029Z,325
2017-06-24T09:58:43.318Z,265
2017-06-24T09:59:43.557Z,280
2017-06-24T10:00:43.041Z,260
2017-06-24T10:01:43.263Z,245
2017-06-24T10:02:43.263Z,260
2017-06-24T10:03:43.231Z,255
2017-06-24T10:04:43.217Z,250
2017-06-24T10:05:43.195Z,235
2017-06-24T10:06:43.217Z,250
2017-06-24T10:07:42.576Z,240
2017-06-24T10:08:43.195Z,260
2017-06-24T10:09:43.145Z,275
2017-06-24T10:10:43.116Z,275
2017-06-24T10:11:43.163Z,280
2017-06-24T10:12:43.085Z,260
2017-06-24T10:13:43.069Z,275
2017-06-24T10:14:43.041Z,290
2017-06-24T10:15:42.774Z,260
2017-06-24T10:16:43.019Z,275
2017-06-24T10:17:42.699Z,265
2017-06-24T10:18:42.966Z,275
2017-06-24T10:19:42.646Z,255
2017-06-24T10:20:42.936Z,315
2017-06-24T10:21:42.919Z,295
2017-06-24T10:22:42.309Z,340
2017-06-24T10:23:42.878Z,370
2017-06-24T10:24:42.869Z,310
2017-06-24T10:25:42.895Z,285
2017-06-24T10:26:42.826Z,305
2017-06-24T10:27:42.559Z,295
2017-06-24T10:28:42.538Z,270
2017-06-24T10:29:42.179Z,240
2017-06-24T10:30:42.502Z,245
2017-06-24T10:31:42.797Z,230
2017-06-24T10:32:42.735Z,250
2017-06-24T10:33:42.710Z,250
2017-06-24T10:34:42.689Z,255
2017-06-24T10:35:42.673Z,285
2017-06-24T10:36:42.650Z,275
2017-06-24T10:37:42.699Z,270
2017-06-24T10:38:42.609Z,365
2017-06-24T10:39:42.593Z,350
2017-06-24T10:40:42.579Z,270
2017-06-24T10:41:42.562Z,280
2017-06-24T10:42:42.297Z,340
2017-06-24T10:43:41.936Z,370
2017-06-24T10:44:42.503Z,365
2017-06-24T10:45:42.493Z,355
2017-06-24T10:46:42.486Z,350
2017-06-24T10:47:42.145Z,280
2017-06-24T10:48:42.499Z,375
2017-06-24T10:49:41.815Z,415
2017-06-24T10:50:42.363Z,515
2017-06-24T10:51:42.074Z,375
2017-06-24T10:52:42.422Z,380
2017-06-24T10:53:42.358Z,475
2017-06-24T10:54:42.030Z,490
2017-06-24T10:55:42.310Z,370
2017-06-24T10:56:42.302Z,410
2017-06-24T10:57:42.329Z,390
2017-06-24T10:58:42.275Z,370
2017-06-24T10:59:42.240Z,370
2017-06-24T11:00:42.225Z,405
2017-06-24T11:01:42.210Z,460
2017-06-24T11:02:41.891Z,425
2017-06-24T11:03:42.158Z,480
2017-06-24T11:04:41.847Z,405
2017-06-24T11:05:42.156Z,430
2017-06-24T11:06:42.127Z,545
2017-06-24T11:07:42.100Z,690
2017-06-24T11:08:42.073Z,710
2017-06-24T11:09:41.764Z,640
2017-06-24T11:10:42.052Z,575
2017-06-24T11:11:41.731Z,505
2017-06-24T11:12:42.014Z,500
2017-06-24T11:13:42.008Z,395
2017-06-24T11:14:41.980Z,495
2017-06-24T11:15:42.019Z,625
2017-06-24T11:16:41.436Z,595
2017-06-24T11:17:41.924Z,470
2017-06-24T11:18:41.957Z,620
2017-06-24T11:19:41.909Z,535
2017-06-24T11:20:41.873Z,520
2017-06-24T11:21:41.861Z,385
2017-06-24T11:22:41.844Z,380
2017-06-24T11:23:41.826Z,345
2017-06-24T11:24:41.808Z,355
2017-06-24T11:25:41.789Z,415
2017-06-24T11:26:41.769Z,385
2017-06-24T11:27:41.808Z,465
2017-06-24T11:28:41.752Z,450
2017-06-24T11:29:41.731Z,410
2017-06-24T11:30:41.764Z,565
2017-06-24T11:31:41.692Z,395
2017-06-24T11:32:41.669Z,330
2017-06-24T11:33:41.657Z,370
2017-06-24T11:34:41.760Z,295
2017-06-24T11:35:41.620Z,275
2017-06-24T11:36:41.305Z,280
2017-06-24T11:37:41.604Z,325
2017-06-24T11:38:41.848Z,290
2017-06-24T11:39:41.255Z,275
2017-06-24T11:40:41.232Z,260
2017-06-24T11:41:41.530Z,300
2017-06-24T11:42:41.532Z,305
2017-06-24T11:43:41.487Z,370
2017-06-24T11:44:41.480Z,375
2017-06-24T11:45:41.453Z,330
2017-06-24T11:46:41.455Z,295
2017-06-24T11:47:41.127Z,280
2017-06-24T11:48:41.103Z,385
2017-06-24T11:49:41.383Z,355
2017-06-24T11:50:41.425Z,345
2017-06-24T11:51:41.053Z,440
2017-06-24T11:52:41.356Z,530
2017-06-24T11:53:41.317Z,395
2017-06-24T11:54:41.297Z,480
2017-06-24T11:55:41.020Z,455
2017-06-24T11:56:41.314Z,410
2017-06-24T11:57:41.248Z,370
2017-06-24T11:58:41.234Z,325
2017-06-24T11:59:41.268Z,320
2017-06-24T12:00:41.144Z,265
2017-06-24T12:01:41.254Z,210
2017-06-24T12:02:41.158Z,240
2017-06-24T12:03:40.834Z,225
2017-06-24T12:04:40.874Z,210
2017-06-24T12:05:40.825Z,230
2017-06-24T12:06:41.107Z,270
2017-06-24T12:07:41.077Z,280
2017-06-24T12:08:40.820Z,210
2017-06-24T12:09:40.757Z,175
2017-06-24T12:10:41.020Z,155
2017-06-24T12:11:41.002Z,165
2017-06-24T12:12:40.993Z,215
2017-06-24T12:13:40.960Z,220
2017-06-24T12:14:40.951Z,180
2017-06-24T12:15:40.648Z,185
2017-06-24T12:16:40.971Z,220
2017-06-24T12:17:40.291Z,225
2017-06-24T12:18:40.584Z,220
2017-06-24T12:19:40.865Z,195
2017-06-24T12:20:40.888Z,205
2017-06-24T12:21:40.521Z,205
2017-06-24T12:22:40.812Z,200
2017-06-24T12:23:40.802Z,185
2017-06-24T12:24:40.821Z,210
2017-06-24T12:25:40.802Z,205
2017-06-24T12:26:40.435Z,180
2017-06-24T12:27:40.720Z,170
2017-06-24T12:28:40.710Z,160
2017-06-24T12:29:40.376Z,160
2017-06-24T12:30:40.717Z,170
2017-06-24T12:31:40.643Z,165
2017-06-24T12:32:40.387Z,165
2017-06-24T12:33:40.311Z,180
2017-06-24T12:34:40.630Z,155
2017-06-24T12:35:40.576Z,160
2017-06-24T12:36:40.559Z,170
2017-06-24T12:37:40.581Z,155
2017-06-24T12:38:40.570Z,145
2017-06-24T12:39:40.513Z,155
2017-06-24T12:40:40.482Z,155
2017-06-24T12:41:40.459Z,150
2017-06-24T12:42:40.145Z,145
2017-06-24T12:43:40.126Z,145
2017-06-24T12:44:40.105Z,170
2017-06-24T12:45:40.397Z,175
2017-06-24T12:46:40.368Z,230
2017-06-24T12:47:40.358Z,290
2017-06-24T12:48:40.346Z,270
2017-06-24T12:49:40.369Z,230
2017-06-24T12:50:40.303Z,195
2017-06-24T12:51:40.288Z,170
2017-06-24T12:52:40.271Z,165
2017-06-24T12:53:40.251Z,170
2017-06-24T12:54:40.225Z,185
2017-06-24T12:55:40.232Z,220
2017-06-24T12:56:40.242Z,225
2017-06-24T12:57:40.209Z,210
2017-06-24T12:58:40.152Z,200
2017-06-24T12:59:40.131Z,195
2017-06-24T13:00:40.167Z,195
2017-06-24T13:01:40.091Z,175
2017-06-24T13:02:40.081Z,195
2017-06-24T13:03:39.760Z,200
2017-06-24T13:04:40.044Z,185
2017-06-24T13:05:40.036Z,210
2017-06-24T13:06:40.015Z,205
2017-06-24T13:07:39.984Z,185
2017-06-24T13:08:39.969Z,180
2017-06-24T13:09:39.946Z,230
2017-06-24T13:10:39.942Z,300
2017-06-24T13:11:39.916Z,250
2017-06-24T13:12:39.942Z,210
2017-06-24T13:13:39.874Z,190
2017-06-24T13:14:39.856Z,195
2017-06-24T13:15:39.840Z,190
2017-06-24T13:16:39.822Z,190
2017-06-24T13:17:39.207Z,160
2017-06-24T13:18:39.831Z,165
2017-06-24T13:19:39.768Z,155
2017-06-24T13:20:39.745Z,160
2017-06-24T13:21:39.754Z,180
2017-06-24T13:22:39.727Z,200
2017-06-24T13:23:39.692Z,180
2017-06-24T13:24:39.682Z,165
2017-06-24T13:25:39.717Z,155
2017-06-24T13:26:39.642Z,165
2017-06-24T13:27:39.330Z,165
2017-06-24T13:28:39.596Z,145
2017-06-24T13:29:39.576Z,130
2017-06-24T13:30:39.565Z,115
2017-06-24T13:31:39.546Z,130
2017-06-24T13:32:39.245Z,130
2017-06-24T13:33:39.509Z,120
2017-06-24T13:34:39.544Z,115
2017-06-24T13:35:39.477Z,115
2017-06-24T13:36:39.170Z,120
2017-06-24T13:37:39.442Z,125
2017-06-24T13:38:39.120Z,120
2017-06-24T13:39:39.100Z,135
2017-06-24T13:40:39.375Z,160
2017-06-24T13:41:39.374Z,155
2017-06-24T13:42:39.348Z,135
2017-06-24T13:43:39.325Z,135
2017-06-24T13:44:39.357Z,155
2017-06-24T13:45:39.291Z,170
2017-06-24T13:46:39.273Z,170
2017-06-24T13:47:39.294Z,170
2017-06-24T13:48:39.227Z,165
2017-06-24T13:49:38.912Z,195
2017-06-24T13:50:39.213Z,195
2017-06-24T13:51:39.179Z,185
2017-06-24T13:52:38.862Z,170
2017-06-24T13:53:38.844Z,160
2017-06-24T13:54:38.222Z,145
2017-06-24T13:55:38.800Z,165
2017-06-24T13:56:39.094Z,165
2017-06-24T13:57:39.316Z,185
2017-06-24T13:58:39.105Z,285
2017-06-24T13:59:38.418Z,305
2017-06-24T14:00:38.712Z,230
2017-06-24T14:01:38.689Z,240
2017-06-24T14:02:38.694Z,220
2017-06-24T14:03:38.957Z,235